sensor_id;sensor_type;location;lat;lon;timestamp;P1;durP1;ratioP1;P2;durP2;ratioP2
74196;SDS011;62555;52.678;4.900;2023-04-15T00:00:50;3.50;;;3.20;;
74196;SDS011;62555;52.678;4.900;2023-04-15T00:03:16;3.78;;;3.00;;
74196;SDS011;62555;52.678;4.900;2023-04-15T00:05:41;3.50;;;3.20;;
74196;SDS011;62555;52.678;4.900;2023-04-15T00:08:07;3.53;;;3.22;;
74196;SDS011;62555;52.678;4.900;2023-04-15T00:10:32;3.45;;;2.95;;
74196;SDS011;62555;52.678;4.900;2023-04-15T00:12:57;3.73;;;2.97;;
74196;SDS011;62555;52.678;4.900;2023-04-15T00:15:22;3.17;;;2.87;;
74196;SDS011;62555;52.678;4.900;2023-04-15T00:17:49;3.20;;;2.90;;
74196;SDS011;62555;52.678;4.900;2023-04-15T00:20:14;2.92;;;2.72;;
74196;SDS011;62555;52.678;4.900;2023-04-15T00:22:40;3.30;;;2.80;;
74196;SDS011;62555;52.678;4.900;2023-04-15T00:25:05;3.53;;;3.22;;
74196;SDS011;62555;52.678;4.900;2023-04-15T00:27:30;3.07;;;2.77;;
74196;SDS011;62555;52.678;4.900;2023-04-15T00:29:56;3.57;;;2.80;;
74196;SDS011;62555;52.678;4.900;2023-04-15T00:32:21;3.20;;;2.90;;
74196;SDS011;62555;52.678;4.900;2023-04-15T00:34:46;3.77;;;3.00;;
74196;SDS011;62555;52.678;4.900;2023-04-15T00:37:11;3.23;;;2.93;;
74196;SDS011;62555;52.678;4.900;2023-04-15T00:39:37;3.22;;;2.90;;
74196;SDS011;62555;52.678;4.900;2023-04-15T00:42:03;2.97;;;2.65;;
74196;SDS011;62555;52.678;4.900;2023-04-15T00:44:28;3.65;;;3.08;;
74196;SDS011;62555;52.678;4.900;2023-04-15T00:46:54;3.37;;;3.07;;
74196;SDS011;62555;52.678;4.900;2023-04-15T00:49:19;3.50;;;2.70;;
74196;SDS011;62555;52.678;4.900;2023-04-15T00:51:44;2.67;;;2.47;;
74196;SDS011;62555;52.678;4.900;2023-04-15T00:54:09;3.60;;;3.30;;
74196;SDS011;62555;52.678;4.900;2023-04-15T00:56:35;2.90;;;2.65;;
74196;SDS011;62555;52.678;4.900;2023-04-15T00:59:01;3.08;;;2.58;;
74196;SDS011;62555;52.678;4.900;2023-04-15T01:01:27;3.10;;;2.80;;
74196;SDS011;62555;52.678;4.900;2023-04-15T01:03:53;4.15;;;2.58;;
74196;SDS011;62555;52.678;4.900;2023-04-15T01:06:19;3.08;;;2.78;;
74196;SDS011;62555;52.678;4.900;2023-04-15T01:08:44;3.67;;;2.80;;
74196;SDS011;62555;52.678;4.900;2023-04-15T01:11:10;3.13;;;2.83;;
74196;SDS011;62555;52.678;4.900;2023-04-15T01:13:36;2.88;;;2.60;;
74196;SDS011;62555;52.678;4.900;2023-04-15T01:16:01;3.35;;;2.78;;
74196;SDS011;62555;52.678;4.900;2023-04-15T01:18:27;3.00;;;2.60;;
74196;SDS011;62555;52.678;4.900;2023-04-15T01:20:52;3.13;;;2.67;;
74196;SDS011;62555;52.678;4.900;2023-04-15T01:23:18;3.13;;;2.67;;
74196;SDS011;62555;52.678;4.900;2023-04-15T01:25:43;2.58;;;2.38;;
74196;SDS011;62555;52.678;4.900;2023-04-15T01:28:09;2.58;;;2.38;;
74196;SDS011;62555;52.678;4.900;2023-04-15T01:30:34;2.53;;;2.25;;
74196;SDS011;62555;52.678;4.900;2023-04-15T01:33:00;2.97;;;2.70;;
74196;SDS011;62555;52.678;4.900;2023-04-15T01:35:25;2.47;;;2.27;;
74196;SDS011;62555;52.678;4.900;2023-04-15T01:37:51;2.92;;;2.40;;
74196;SDS011;62555;52.678;4.900;2023-04-15T01:40:16;2.78;;;2.47;;
74196;SDS011;62555;52.678;4.900;2023-04-15T01:42:41;2.90;;;2.17;;
74196;SDS011;62555;52.678;4.900;2023-04-15T01:45:07;2.40;;;2.20;;
74196;SDS011;62555;52.678;4.900;2023-04-15T01:47:32;3.53;;;2.55;;
74196;SDS011;62555;52.678;4.900;2023-04-15T01:49:57;2.70;;;2.10;;
74196;SDS011;62555;52.678;4.900;2023-04-15T01:52:22;2.40;;;2.20;;
74196;SDS011;62555;52.678;4.900;2023-04-15T01:54:48;3.17;;;2.88;;
74196;SDS011;62555;52.678;4.900;2023-04-15T01:57:13;2.43;;;2.23;;
74196;SDS011;62555;52.678;4.900;2023-04-15T01:59:38;2.63;;;2.23;;
74196;SDS011;62555;52.678;4.900;2023-04-15T02:02:03;2.40;;;2.20;;
74196;SDS011;62555;52.678;4.900;2023-04-15T02:04:29;2.95;;;2.67;;
74196;SDS011;62555;52.678;4.900;2023-04-15T02:06:54;2.25;;;1.95;;
74196;SDS011;62555;52.678;4.900;2023-04-15T02:09:19;2.53;;;2.23;;
74196;SDS011;62555;52.678;4.900;2023-04-15T02:11:45;3.20;;;2.50;;
74196;SDS011;62555;52.678;4.900;2023-04-15T02:14:10;3.33;;;2.20;;
74196;SDS011;62555;52.678;4.900;2023-04-15T02:16:35;2.73;;;2.30;;
74196;SDS011;62555;52.678;4.900;2023-04-15T02:19:00;2.67;;;2.25;;
74196;SDS011;62555;52.678;4.900;2023-04-15T02:21:26;2.20;;;2.00;;
74196;SDS011;62555;52.678;4.900;2023-04-15T02:23:51;2.60;;;2.17;;
74196;SDS011;62555;52.678;4.900;2023-04-15T02:26:17;2.60;;;2.15;;
74196;SDS011;62555;52.678;4.900;2023-04-15T02:28:43;2.67;;;2.30;;
74196;SDS011;62555;52.678;4.900;2023-04-15T02:31:08;2.73;;;2.40;;
74196;SDS011;62555;52.678;4.900;2023-04-15T02:33:33;2.45;;;2.22;;
74196;SDS011;62555;52.678;4.900;2023-04-15T02:35:59;2.22;;;1.90;;
74196;SDS011;62555;52.678;4.900;2023-04-15T02:38:24;2.43;;;2.23;;
74196;SDS011;62555;52.678;4.900;2023-04-15T02:40:49;2.20;;;2.00;;
74196;SDS011;62555;52.678;4.900;2023-04-15T02:43:15;2.28;;;2.08;;
74196;SDS011;62555;52.678;4.900;2023-04-15T02:45:41;2.80;;;2.10;;
74196;SDS011;62555;52.678;4.900;2023-04-15T02:48:07;2.17;;;1.98;;
74196;SDS011;62555;52.678;4.900;2023-04-15T02:50:32;2.08;;;1.80;;
74196;SDS011;62555;52.678;4.900;2023-04-15T02:52:58;2.08;;;1.73;;
74196;SDS011;62555;52.678;4.900;2023-04-15T02:55:25;2.83;;;2.28;;
74196;SDS011;62555;52.678;4.900;2023-04-15T02:57:50;2.20;;;2.00;;
74196;SDS011;62555;52.678;4.900;2023-04-15T03:00:15;3.00;;;2.03;;
74196;SDS011;62555;52.678;4.900;2023-04-15T03:02:40;2.50;;;2.30;;
74196;SDS011;62555;52.678;4.900;2023-04-15T03:05:09;2.13;;;1.92;;
74196;SDS011;62555;52.678;4.900;2023-04-15T03:07:35;2.47;;;2.28;;
74196;SDS011;62555;52.678;4.900;2023-04-15T03:10:00;2.43;;;2.23;;
74196;SDS011;62555;52.678;4.900;2023-04-15T03:12:26;2.22;;;2.03;;
74196;SDS011;62555;52.678;4.900;2023-04-15T03:14:51;3.45;;;2.00;;
74196;SDS011;62555;52.678;4.900;2023-04-15T03:17:17;2.23;;;2.03;;
74196;SDS011;62555;52.678;4.900;2023-04-15T03:19:42;2.42;;;2.22;;
74196;SDS011;62555;52.678;4.900;2023-04-15T03:22:07;2.10;;;1.90;;
74196;SDS011;62555;52.678;4.900;2023-04-15T03:24:33;2.53;;;2.33;;
74196;SDS011;62555;52.678;4.900;2023-04-15T03:26:58;2.37;;;2.00;;
74196;SDS011;62555;52.678;4.900;2023-04-15T03:29:23;2.10;;;1.77;;
74196;SDS011;62555;52.678;4.900;2023-04-15T03:31:48;2.27;;;1.80;;
74196;SDS011;62555;52.678;4.900;2023-04-15T03:34:13;2.33;;;2.00;;
74196;SDS011;62555;52.678;4.900;2023-04-15T03:36:39;2.20;;;1.50;;
74196;SDS011;62555;52.678;4.900;2023-04-15T03:39:04;2.17;;;1.98;;
74196;SDS011;62555;52.678;4.900;2023-04-15T03:41:29;2.40;;;2.20;;
74196;SDS011;62555;52.678;4.900;2023-04-15T03:43:55;2.40;;;2.00;;
74196;SDS011;62555;52.678;4.900;2023-04-15T03:46:20;2.25;;;1.80;;
74196;SDS011;62555;52.678;4.900;2023-04-15T03:48:46;2.30;;;2.10;;
74196;SDS011;62555;52.678;4.900;2023-04-15T03:51:11;2.55;;;2.30;;
74196;SDS011;62555;52.678;4.900;2023-04-15T03:53:36;1.93;;;1.73;;
74196;SDS011;62555;52.678;4.900;2023-04-15T03:56:01;3.73;;;1.80;;
74196;SDS011;62555;52.678;4.900;2023-04-15T03:58:26;3.77;;;2.57;;
74196;SDS011;62555;52.678;4.900;2023-04-15T04:00:52;2.67;;;1.83;;
74196;SDS011;62555;52.678;4.900;2023-04-15T04:03:17;2.80;;;2.00;;
74196;SDS011;62555;52.678;4.900;2023-04-15T04:05:42;1.90;;;1.70;;
74196;SDS011;62555;52.678;4.900;2023-04-15T04:08:08;2.85;;;1.70;;
74196;SDS011;62555;52.678;4.900;2023-04-15T04:10:33;2.40;;;2.20;;
74196;SDS011;62555;52.678;4.900;2023-04-15T04:12:59;2.13;;;1.63;;
74196;SDS011;62555;52.678;4.900;2023-04-15T04:15:24;2.77;;;1.80;;
74196;SDS011;62555;52.678;4.900;2023-04-15T04:17:50;1.83;;;1.73;;
74196;SDS011;62555;52.678;4.900;2023-04-15T04:20:15;2.15;;;1.90;;
74196;SDS011;62555;52.678;4.900;2023-04-15T04:22:40;2.00;;;1.60;;
74196;SDS011;62555;52.678;4.900;2023-04-15T04:25:06;2.30;;;1.50;;
74196;SDS011;62555;52.678;4.900;2023-04-15T04:27:32;2.85;;;1.90;;
74196;SDS011;62555;52.678;4.900;2023-04-15T04:29:57;2.10;;;1.80;;
74196;SDS011;62555;52.678;4.900;2023-04-15T04:32:22;2.20;;;1.90;;
74196;SDS011;62555;52.678;4.900;2023-04-15T04:34:48;2.23;;;1.77;;
74196;SDS011;62555;52.678;4.900;2023-04-15T04:37:13;2.07;;;1.37;;
74196;SDS011;62555;52.678;4.900;2023-04-15T04:39:38;1.60;;;1.50;;
74196;SDS011;62555;52.678;4.900;2023-04-15T04:42:03;2.15;;;1.67;;
74196;SDS011;62555;52.678;4.900;2023-04-15T04:44:28;1.40;;;1.30;;
74196;SDS011;62555;52.678;4.900;2023-04-15T04:46:54;2.03;;;1.70;;
74196;SDS011;62555;52.678;4.900;2023-04-15T04:49:19;2.47;;;1.85;;
74196;SDS011;62555;52.678;4.900;2023-04-15T04:51:44;1.63;;;1.37;;
74196;SDS011;62555;52.678;4.900;2023-04-15T04:54:11;1.80;;;1.60;;
74196;SDS011;62555;52.678;4.900;2023-04-15T04:56:36;1.40;;;1.30;;
74196;SDS011;62555;52.678;4.900;2023-04-15T04:59:03;1.70;;;1.58;;
74196;SDS011;62555;52.678;4.900;2023-04-15T05:01:28;1.50;;;1.33;;
74196;SDS011;62555;52.678;4.900;2023-04-15T05:03:53;1.70;;;1.27;;
74196;SDS011;62555;52.678;4.900;2023-04-15T05:06:18;2.50;;;1.53;;
74196;SDS011;62555;52.678;4.900;2023-04-15T05:08:44;2.27;;;1.60;;
74196;SDS011;62555;52.678;4.900;2023-04-15T05:11:10;2.33;;;1.60;;
74196;SDS011;62555;52.678;4.900;2023-04-15T05:13:35;1.98;;;1.35;;
74196;SDS011;62555;52.678;4.900;2023-04-15T05:16:03;1.73;;;1.55;;
74196;SDS011;62555;52.678;4.900;2023-04-15T05:18:28;2.17;;;1.40;;
74196;SDS011;62555;52.678;4.900;2023-04-15T05:20:53;2.10;;;1.63;;
74196;SDS011;62555;52.678;4.900;2023-04-15T05:23:18;2.03;;;1.23;;
74196;SDS011;62555;52.678;4.900;2023-04-15T05:25:44;2.30;;;1.50;;
74196;SDS011;62555;52.678;4.900;2023-04-15T05:28:09;1.63;;;1.53;;
74196;SDS011;62555;52.678;4.900;2023-04-15T05:30:34;1.65;;;1.48;;
74196;SDS011;62555;52.678;4.900;2023-04-15T05:32:59;2.20;;;1.58;;
74196;SDS011;62555;52.678;4.900;2023-04-15T05:35:25;1.40;;;1.30;;
74196;SDS011;62555;52.678;4.900;2023-04-15T05:37:50;1.60;;;1.50;;
74196;SDS011;62555;52.678;4.900;2023-04-15T05:40:15;1.43;;;1.17;;
74196;SDS011;62555;52.678;4.900;2023-04-15T05:42:40;1.60;;;1.40;;
74196;SDS011;62555;52.678;4.900;2023-04-15T05:45:06;1.60;;;1.50;;
74196;SDS011;62555;52.678;4.900;2023-04-15T05:47:33;1.98;;;1.40;;
74196;SDS011;62555;52.678;4.900;2023-04-15T05:49:58;1.60;;;1.33;;
74196;SDS011;62555;52.678;4.900;2023-04-15T05:52:24;2.40;;;1.50;;
74196;SDS011;62555;52.678;4.900;2023-04-15T05:54:49;1.20;;;1.10;;
74196;SDS011;62555;52.678;4.900;2023-04-15T05:57:14;1.50;;;1.40;;
74196;SDS011;62555;52.678;4.900;2023-04-15T05:59:40;2.80;;;1.50;;
74196;SDS011;62555;52.678;4.900;2023-04-15T06:02:06;1.85;;;1.20;;
74196;SDS011;62555;52.678;4.900;2023-04-15T06:04:31;1.33;;;1.00;;
74196;SDS011;62555;52.678;4.900;2023-04-15T06:06:56;1.45;;;1.35;;
74196;SDS011;62555;52.678;4.900;2023-04-15T06:09:21;1.93;;;1.20;;
74196;SDS011;62555;52.678;4.900;2023-04-15T06:11:46;1.40;;;1.30;;
74196;SDS011;62555;52.678;4.900;2023-04-15T06:14:12;1.73;;;1.40;;
74196;SDS011;62555;52.678;4.900;2023-04-15T06:16:37;1.30;;;1.20;;
74196;SDS011;62555;52.678;4.900;2023-04-15T06:19:02;1.52;;;1.40;;
74196;SDS011;62555;52.678;4.900;2023-04-15T06:21:28;2.55;;;1.30;;
74196;SDS011;62555;52.678;4.900;2023-04-15T06:23:53;2.10;;;1.90;;
74196;SDS011;62555;52.678;4.900;2023-04-15T06:26:18;2.07;;;1.60;;
74196;SDS011;62555;52.678;4.900;2023-04-15T06:28:44;1.87;;;1.70;;
74196;SDS011;62555;52.678;4.900;2023-04-15T06:31:09;1.93;;;1.63;;
74196;SDS011;62555;52.678;4.900;2023-04-15T06:33:34;2.03;;;1.50;;
74196;SDS011;62555;52.678;4.900;2023-04-15T06:35:59;1.70;;;1.60;;
74196;SDS011;62555;52.678;4.900;2023-04-15T06:38:24;2.17;;;1.65;;
74196;SDS011;62555;52.678;4.900;2023-04-15T06:40:50;2.08;;;1.83;;
74196;SDS011;62555;52.678;4.900;2023-04-15T06:43:15;2.10;;;1.90;;
74196;SDS011;62555;52.678;4.900;2023-04-15T06:45:40;1.83;;;1.50;;
74196;SDS011;62555;52.678;4.900;2023-04-15T06:48:05;2.23;;;1.70;;
74196;SDS011;62555;52.678;4.900;2023-04-15T06:50:31;1.95;;;1.65;;
74196;SDS011;62555;52.678;4.900;2023-04-15T06:52:56;2.60;;;1.60;;
74196;SDS011;62555;52.678;4.900;2023-04-15T06:55:21;2.33;;;1.73;;
74196;SDS011;62555;52.678;4.900;2023-04-15T06:57:47;2.58;;;2.38;;
74196;SDS011;62555;52.678;4.900;2023-04-15T07:00:12;1.77;;;1.63;;
74196;SDS011;62555;52.678;4.900;2023-04-15T07:02:37;2.20;;;2.00;;
74196;SDS011;62555;52.678;4.900;2023-04-15T07:05:03;1.88;;;1.77;;
74196;SDS011;62555;52.678;4.900;2023-04-15T07:07:28;2.00;;;1.58;;
74196;SDS011;62555;52.678;4.900;2023-04-15T07:09:54;3.80;;;2.30;;
74196;SDS011;62555;52.678;4.900;2023-04-15T07:12:19;3.07;;;2.53;;
74196;SDS011;62555;52.678;4.900;2023-04-15T07:14:44;4.00;;;2.50;;
74196;SDS011;62555;52.678;4.900;2023-04-15T07:17:09;2.20;;;2.00;;
74196;SDS011;62555;52.678;4.900;2023-04-15T07:19:36;2.60;;;2.28;;
74196;SDS011;62555;52.678;4.900;2023-04-15T07:22:01;3.43;;;2.60;;
74196;SDS011;62555;52.678;4.900;2023-04-15T07:24:26;2.58;;;2.15;;
74196;SDS011;62555;52.678;4.900;2023-04-15T07:26:52;2.93;;;2.70;;
74196;SDS011;62555;52.678;4.900;2023-04-15T07:29:18;3.08;;;2.28;;
74196;SDS011;62555;52.678;4.900;2023-04-15T07:31:43;2.87;;;2.57;;
74196;SDS011;62555;52.678;4.900;2023-04-15T07:34:08;3.13;;;2.17;;
74196;SDS011;62555;52.678;4.900;2023-04-15T07:36:33;2.42;;;2.20;;
74196;SDS011;62555;52.678;4.900;2023-04-15T07:38:59;3.08;;;2.20;;
74196;SDS011;62555;52.678;4.900;2023-04-15T07:41:26;3.17;;;2.50;;
74196;SDS011;62555;52.678;4.900;2023-04-15T07:43:51;2.60;;;2.30;;
74196;SDS011;62555;52.678;4.900;2023-04-15T07:46:16;2.60;;;2.30;;
74196;SDS011;62555;52.678;4.900;2023-04-15T07:48:41;2.47;;;2.23;;
74196;SDS011;62555;52.678;4.900;2023-04-15T07:51:07;2.55;;;2.08;;
74196;SDS011;62555;52.678;4.900;2023-04-15T07:53:32;2.60;;;2.33;;
74196;SDS011;62555;52.678;4.900;2023-04-15T07:55:57;3.47;;;2.30;;
74196;SDS011;62555;52.678;4.900;2023-04-15T07:58:23;2.40;;;2.13;;
74196;SDS011;62555;52.678;4.900;2023-04-15T08:00:48;2.80;;;2.33;;
74196;SDS011;62555;52.678;4.900;2023-04-15T08:03:13;3.17;;;2.40;;
74196;SDS011;62555;52.678;4.900;2023-04-15T08:05:39;3.08;;;2.33;;
74196;SDS011;62555;52.678;4.900;2023-04-15T08:08:04;2.83;;;2.33;;
74196;SDS011;62555;52.678;4.900;2023-04-15T08:10:30;2.90;;;2.50;;
74196;SDS011;62555;52.678;4.900;2023-04-15T08:12:55;3.22;;;2.35;;
74196;SDS011;62555;52.678;4.900;2023-04-15T08:15:21;3.75;;;2.40;;
74196;SDS011;62555;52.678;4.900;2023-04-15T08:17:47;3.25;;;2.58;;
74196;SDS011;62555;52.678;4.900;2023-04-15T08:20:12;3.83;;;2.67;;
74196;SDS011;62555;52.678;4.900;2023-04-15T08:22:38;3.63;;;2.92;;
74196;SDS011;62555;52.678;4.900;2023-04-15T08:25:04;3.15;;;2.40;;
74196;SDS011;62555;52.678;4.900;2023-04-15T08:27:29;3.25;;;2.67;;
74196;SDS011;62555;52.678;4.900;2023-04-15T08:29:54;3.63;;;2.92;;
74196;SDS011;62555;52.678;4.900;2023-04-15T08:32:20;3.05;;;2.67;;
74196;SDS011;62555;52.678;4.900;2023-04-15T08:34:45;3.07;;;2.77;;
74196;SDS011;62555;52.678;4.900;2023-04-15T08:37:10;3.97;;;2.60;;
74196;SDS011;62555;52.678;4.900;2023-04-15T08:39:35;3.47;;;2.73;;
74196;SDS011;62555;52.678;4.900;2023-04-15T08:42:01;3.05;;;2.40;;
74196;SDS011;62555;52.678;4.900;2023-04-15T08:44:32;3.63;;;2.90;;
74196;SDS011;62555;52.678;4.900;2023-04-15T08:47:01;3.97;;;2.90;;
74196;SDS011;62555;52.678;4.900;2023-04-15T08:49:29;2.95;;;2.70;;
74196;SDS011;62555;52.678;4.900;2023-04-15T08:51:57;3.53;;;2.60;;
74196;SDS011;62555;52.678;4.900;2023-04-15T08:54:22;3.63;;;2.92;;
74196;SDS011;62555;52.678;4.900;2023-04-15T08:56:48;3.05;;;2.20;;
74196;SDS011;62555;52.678;4.900;2023-04-15T08:59:14;5.22;;;3.00;;
74196;SDS011;62555;52.678;4.900;2023-04-15T09:01:40;3.28;;;2.50;;
74196;SDS011;62555;52.678;4.900;2023-04-15T09:04:06;3.08;;;2.53;;
74196;SDS011;62555;52.678;4.900;2023-04-15T09:06:31;5.03;;;3.00;;
74196;SDS011;62555;52.678;4.900;2023-04-15T09:08:57;3.30;;;2.40;;
74196;SDS011;62555;52.678;4.900;2023-04-15T09:11:22;4.28;;;3.00;;
74196;SDS011;62555;52.678;4.900;2023-04-15T09:13:48;3.17;;;2.40;;
74196;SDS011;62555;52.678;4.900;2023-04-15T09:16:13;3.08;;;2.30;;
74196;SDS011;62555;52.678;4.900;2023-04-15T09:18:38;3.17;;;2.60;;
74196;SDS011;62555;52.678;4.900;2023-04-15T09:21:10;2.93;;;2.23;;
74196;SDS011;62555;52.678;4.900;2023-04-15T09:23:36;3.95;;;2.80;;
74196;SDS011;62555;52.678;4.900;2023-04-15T09:26:01;3.33;;;2.50;;
74196;SDS011;62555;52.678;4.900;2023-04-15T09:28:27;3.67;;;2.88;;
74196;SDS011;62555;52.678;4.900;2023-04-15T09:30:56;3.78;;;2.75;;
74196;SDS011;62555;52.678;4.900;2023-04-15T09:33:22;3.92;;;3.10;;
74196;SDS011;62555;52.678;4.900;2023-04-15T09:36:00;4.55;;;3.15;;
74196;SDS011;62555;52.678;4.900;2023-04-15T09:38:26;3.25;;;2.42;;
74196;SDS011;62555;52.678;4.900;2023-04-15T09:40:51;3.08;;;2.42;;
74196;SDS011;62555;52.678;4.900;2023-04-15T09:43:16;3.23;;;2.37;;
74196;SDS011;62555;52.678;4.900;2023-04-15T09:45:51;3.97;;;2.63;;
74196;SDS011;62555;52.678;4.900;2023-04-15T09:48:18;4.40;;;3.55;;
74196;SDS011;62555;52.678;4.900;2023-04-15T09:50:45;4.05;;;3.10;;
74196;SDS011;62555;52.678;4.900;2023-04-15T09:53:10;3.00;;;2.40;;
74196;SDS011;62555;52.678;4.900;2023-04-15T09:55:36;3.05;;;2.40;;
74196;SDS011;62555;52.678;4.900;2023-04-15T09:58:01;3.28;;;2.75;;
74196;SDS011;62555;52.678;4.900;2023-04-15T10:00:27;3.50;;;3.03;;
74196;SDS011;62555;52.678;4.900;2023-04-15T10:02:53;3.78;;;2.60;;
74196;SDS011;62555;52.678;4.900;2023-04-15T10:05:18;2.90;;;2.60;;
74196;SDS011;62555;52.678;4.900;2023-04-15T10:07:44;3.47;;;2.30;;
74196;SDS011;62555;52.678;4.900;2023-04-15T10:10:10;3.60;;;2.50;;
74196;SDS011;62555;52.678;4.900;2023-04-15T10:12:36;3.85;;;2.53;;
74196;SDS011;62555;52.678;4.900;2023-04-15T10:15:04;3.30;;;2.30;;
74196;SDS011;62555;52.678;4.900;2023-04-15T10:17:30;2.90;;;2.10;;
74196;SDS011;62555;52.678;4.900;2023-04-15T10:20:01;2.05;;;1.58;;
74196;SDS011;62555;52.678;4.900;2023-04-15T10:22:27;2.58;;;1.90;;
74196;SDS011;62555;52.678;4.900;2023-04-15T10:24:52;3.47;;;2.20;;
74196;SDS011;62555;52.678;4.900;2023-04-15T10:27:18;3.33;;;2.42;;
74196;SDS011;62555;52.678;4.900;2023-04-15T10:29:44;2.17;;;1.90;;
74196;SDS011;62555;52.678;4.900;2023-04-15T10:32:09;3.23;;;1.90;;
74196;SDS011;62555;52.678;4.900;2023-04-15T10:34:35;3.55;;;2.15;;
74196;SDS011;62555;52.678;4.900;2023-04-15T10:37:01;3.03;;;1.67;;
74196;SDS011;62555;52.678;4.900;2023-04-15T10:42:07;2.67;;;1.98;;
74196;SDS011;62555;52.678;4.900;2023-04-15T10:44:34;2.10;;;1.77;;
74196;SDS011;62555;52.678;4.900;2023-04-15T10:49:25;3.55;;;1.90;;
74196;SDS011;62555;52.678;4.900;2023-04-15T10:51:51;3.38;;;1.52;;
74196;SDS011;62555;52.678;4.900;2023-04-15T10:54:34;2.30;;;1.73;;
74196;SDS011;62555;52.678;4.900;2023-04-15T10:59:28;2.53;;;1.90;;
74196;SDS011;62555;52.678;4.900;2023-04-15T11:01:54;3.10;;;1.80;;
74196;SDS011;62555;52.678;4.900;2023-04-15T11:07:07;2.20;;;2.00;;
74196;SDS011;62555;52.678;4.900;2023-04-15T11:09:32;2.47;;;1.90;;
74196;SDS011;62555;52.678;4.900;2023-04-15T11:12:04;2.87;;;1.70;;
74196;SDS011;62555;52.678;4.900;2023-04-15T11:14:33;3.00;;;2.10;;
74196;SDS011;62555;52.678;4.900;2023-04-15T11:16:59;2.67;;;2.28;;
74196;SDS011;62555;52.678;4.900;2023-04-15T11:19:25;3.13;;;2.10;;
74196;SDS011;62555;52.678;4.900;2023-04-15T11:21:51;2.47;;;1.75;;
74196;SDS011;62555;52.678;4.900;2023-04-15T11:24:23;2.80;;;2.13;;
74196;SDS011;62555;52.678;4.900;2023-04-15T11:26:55;2.67;;;1.77;;
74196;SDS011;62555;52.678;4.900;2023-04-15T11:29:21;2.90;;;2.28;;
74196;SDS011;62555;52.678;4.900;2023-04-15T11:31:47;3.35;;;2.05;;
74196;SDS011;62555;52.678;4.900;2023-04-15T11:34:13;3.17;;;2.00;;
74196;SDS011;62555;52.678;4.900;2023-04-15T11:36:46;2.65;;;1.70;;
74196;SDS011;62555;52.678;4.900;2023-04-15T11:39:12;2.38;;;1.55;;
74196;SDS011;62555;52.678;4.900;2023-04-15T11:41:37;2.47;;;2.10;;
74196;SDS011;62555;52.678;4.900;2023-04-15T11:44:02;2.37;;;2.10;;
74196;SDS011;62555;52.678;4.900;2023-04-15T11:46:40;2.20;;;2.00;;
74196;SDS011;62555;52.678;4.900;2023-04-15T11:49:05;2.67;;;2.00;;
74196;SDS011;62555;52.678;4.900;2023-04-15T11:51:33;1.90;;;1.70;;
74196;SDS011;62555;52.678;4.900;2023-04-15T11:53:59;4.07;;;1.58;;
74196;SDS011;62555;52.678;4.900;2023-04-15T11:56:24;3.28;;;2.38;;
74196;SDS011;62555;52.678;4.900;2023-04-15T11:58:56;2.63;;;1.90;;
74196;SDS011;62555;52.678;4.900;2023-04-15T12:01:34;2.80;;;1.63;;
74196;SDS011;62555;52.678;4.900;2023-04-15T12:03:59;2.35;;;2.10;;
74196;SDS011;62555;52.678;4.900;2023-04-15T12:06:30;2.28;;;1.80;;
74196;SDS011;62555;52.678;4.900;2023-04-15T12:13:46;3.25;;;2.30;;
74196;SDS011;62555;52.678;4.900;2023-04-15T12:16:12;2.67;;;2.00;;
74196;SDS011;62555;52.678;4.900;2023-04-15T12:18:37;2.83;;;1.88;;
74196;SDS011;62555;52.678;4.900;2023-04-15T12:21:12;2.45;;;1.42;;
74196;SDS011;62555;52.678;4.900;2023-04-15T12:23:47;2.70;;;1.90;;
74196;SDS011;62555;52.678;4.900;2023-04-15T12:26:12;2.88;;;2.00;;
74196;SDS011;62555;52.678;4.900;2023-04-15T12:28:39;2.27;;;1.90;;
74196;SDS011;62555;52.678;4.900;2023-04-15T12:31:08;2.85;;;1.95;;
74196;SDS011;62555;52.678;4.900;2023-04-15T12:33:33;3.22;;;1.63;;
74196;SDS011;62555;52.678;4.900;2023-04-15T12:35:58;3.92;;;1.85;;
74196;SDS011;62555;52.678;4.900;2023-04-15T12:38:23;3.20;;;1.67;;
74196;SDS011;62555;52.678;4.900;2023-04-15T12:40:49;2.55;;;1.83;;
74196;SDS011;62555;52.678;4.900;2023-04-15T12:43:15;1.58;;;1.40;;
74196;SDS011;62555;52.678;4.900;2023-04-15T12:45:40;1.90;;;1.57;;
74196;SDS011;62555;52.678;4.900;2023-04-15T12:48:05;1.87;;;1.50;;
74196;SDS011;62555;52.678;4.900;2023-04-15T12:50:32;3.67;;;1.70;;
74196;SDS011;62555;52.678;4.900;2023-04-15T12:52:57;2.37;;;0.97;;
74196;SDS011;62555;52.678;4.900;2023-04-15T12:55:22;3.42;;;1.58;;
74196;SDS011;62555;52.678;4.900;2023-04-15T12:57:48;2.07;;;1.13;;
74196;SDS011;62555;52.678;4.900;2023-04-15T13:00:13;3.30;;;1.57;;
74196;SDS011;62555;52.678;4.900;2023-04-15T13:02:38;2.88;;;1.38;;
74196;SDS011;62555;52.678;4.900;2023-04-15T13:05:03;2.50;;;1.13;;
74196;SDS011;62555;52.678;4.900;2023-04-15T13:07:29;1.20;;;1.10;;
74196;SDS011;62555;52.678;4.900;2023-04-15T13:09:54;2.50;;;1.10;;
74196;SDS011;62555;52.678;4.900;2023-04-15T13:12:19;2.40;;;1.13;;
74196;SDS011;62555;52.678;4.900;2023-04-15T13:14:44;2.30;;;1.27;;
74196;SDS011;62555;52.678;4.900;2023-04-15T13:17:09;1.87;;;1.40;;
74196;SDS011;62555;52.678;4.900;2023-04-15T13:19:35;1.83;;;1.20;;
74196;SDS011;62555;52.678;4.900;2023-04-15T13:22:01;2.13;;;1.25;;
74196;SDS011;62555;52.678;4.900;2023-04-15T13:24:26;1.55;;;1.20;;
74196;SDS011;62555;52.678;4.900;2023-04-15T13:26:51;2.20;;;1.23;;
74196;SDS011;62555;52.678;4.900;2023-04-15T13:29:17;3.55;;;1.15;;
74196;SDS011;62555;52.678;4.900;2023-04-15T13:31:42;2.93;;;1.40;;
74196;SDS011;62555;52.678;4.900;2023-04-15T13:34:07;3.00;;;1.37;;
74196;SDS011;62555;52.678;4.900;2023-04-15T13:36:33;1.87;;;1.00;;
74196;SDS011;62555;52.678;4.900;2023-04-15T13:38:58;1.70;;;1.47;;
74196;SDS011;62555;52.678;4.900;2023-04-15T13:41:23;2.42;;;1.27;;
74196;SDS011;62555;52.678;4.900;2023-04-15T13:43:49;1.63;;;1.27;;
74196;SDS011;62555;52.678;4.900;2023-04-15T13:46:14;3.10;;;1.33;;
74196;SDS011;62555;52.678;4.900;2023-04-15T13:48:39;1.47;;;1.30;;
74196;SDS011;62555;52.678;4.900;2023-04-15T13:51:04;2.30;;;1.50;;
74196;SDS011;62555;52.678;4.900;2023-04-15T13:53:30;2.90;;;1.50;;
74196;SDS011;62555;52.678;4.900;2023-04-15T13:55:55;2.53;;;1.33;;
74196;SDS011;62555;52.678;4.900;2023-04-15T13:58:20;2.67;;;1.55;;
74196;SDS011;62555;52.678;4.900;2023-04-15T14:00:45;2.33;;;1.10;;
74196;SDS011;62555;52.678;4.900;2023-04-15T14:03:11;3.03;;;1.83;;
74196;SDS011;62555;52.678;4.900;2023-04-15T14:05:36;2.20;;;1.20;;
74196;SDS011;62555;52.678;4.900;2023-04-15T14:08:01;2.70;;;1.70;;
74196;SDS011;62555;52.678;4.900;2023-04-15T14:10:26;3.23;;;1.67;;
74196;SDS011;62555;52.678;4.900;2023-04-15T14:12:51;1.87;;;1.30;;
74196;SDS011;62555;52.678;4.900;2023-04-15T14:15:17;4.23;;;1.47;;
74196;SDS011;62555;52.678;4.900;2023-04-15T14:17:42;3.20;;;1.40;;
74196;SDS011;62555;52.678;4.900;2023-04-15T14:20:07;2.90;;;1.10;;
74196;SDS011;62555;52.678;4.900;2023-04-15T14:22:33;2.25;;;1.17;;
74196;SDS011;62555;52.678;4.900;2023-04-15T14:24:58;4.77;;;1.43;;
74196;SDS011;62555;52.678;4.900;2023-04-15T14:27:24;2.42;;;1.50;;
74196;SDS011;62555;52.678;4.900;2023-04-15T14:29:49;5.33;;;1.70;;
74196;SDS011;62555;52.678;4.900;2023-04-15T14:32:14;2.80;;;1.35;;
74196;SDS011;62555;52.678;4.900;2023-04-15T14:34:40;3.47;;;1.45;;
74196;SDS011;62555;52.678;4.900;2023-04-15T14:37:05;4.00;;;1.23;;
74196;SDS011;62555;52.678;4.900;2023-04-15T14:39:30;3.30;;;1.17;;
74196;SDS011;62555;52.678;4.900;2023-04-15T14:41:55;1.67;;;1.03;;
74196;SDS011;62555;52.678;4.900;2023-04-15T14:44:21;3.20;;;1.30;;
74196;SDS011;62555;52.678;4.900;2023-04-15T14:46:46;4.37;;;1.47;;
74196;SDS011;62555;52.678;4.900;2023-04-15T14:49:11;1.47;;;0.80;;
74196;SDS011;62555;52.678;4.900;2023-04-15T14:51:36;2.40;;;1.07;;
74196;SDS011;62555;52.678;4.900;2023-04-15T14:54:01;1.63;;;1.03;;